sensor_id;sensor_type;location;lat;lon;timestamp;temperature;humidity
45311;SHT31;68264;51.540;5.854;2023-04-01T00:01:58;9.9;90.8
45311;SHT31;68264;51.540;5.854;2023-04-01T00:15:57;9.8;91.6
45311;SHT31;68264;51.540;5.854;2023-04-01T00:29:46;9.7;92.1
45311;SHT31;68264;51.540;5.854;2023-04-01T00:43:45;9.6;92.4
45311;SHT31;68264;51.540;5.854;2023-04-01T00:57:43;9.7;91.9
45311;SHT31;68264;51.540;5.854;2023-04-01T01:13:06;9.8;91.3
45311;SHT31;68264;51.540;5.854;2023-04-01T01:29:04;9.7;91.7
45311;SHT31;68264;51.540;5.854;2023-04-01T01:43:52;9.7;91.9
45311;SHT31;68264;51.540;5.854;2023-04-01T01:58:11;9.7;92.4
45311;SHT31;68264;51.540;5.854;2023-04-01T02:12:29;9.7;92.6
45311;SHT31;68264;51.540;5.854;2023-04-01T02:26:48;9.6;93.0
45311;SHT31;68264;51.540;5.854;2023-04-01T02:40:37;9.7;92.5
45311;SHT31;68264;51.540;5.854;2023-04-01T02:54:36;9.6;92.7
45311;SHT31;68264;51.540;5.854;2023-04-01T03:08:54;9.6;92.4
45311;SHT31;68264;51.540;5.854;2023-04-01T03:23:13;9.6;92.6
45311;SHT31;68264;51.540;5.854;2023-04-01T03:39:17;9.6;92.1
45311;SHT31;68264;51.540;5.854;2023-04-01T03:55:46;9.5;92.2
45311;SHT31;68264;51.540;5.854;2023-04-01T04:10:05;9.5;92.6
45311;SHT31;68264;51.540;5.854;2023-04-01T04:24:33;9.4;93.1
45311;SHT31;68264;51.540;5.854;2023-04-01T04:39:21;9.4;93.3
45311;SHT31;68264;51.540;5.854;2023-04-01T04:53:40;9.4;93.6
45311;SHT31;68264;51.540;5.854;2023-04-01T05:07:29;9.3;93.4
45311;SHT31;68264;51.540;5.854;2023-04-01T05:21:47;9.3;92.9
45311;SHT31;68264;51.540;5.854;2023-04-01T05:37:07;9.2;92.9
45311;SHT31;68264;51.540;5.854;2023-04-01T05:52:06;9.2;93.1
45311;SHT31;68264;51.540;5.854;2023-04-01T06:08:00;9.2;93.2
45311;SHT31;68264;51.540;5.854;2023-04-01T06:24:00;9.2;93.4
45311;SHT31;68264;51.540;5.854;2023-04-01T06:38:18;9.2;93.7
45311;SHT31;68264;51.540;5.854;2023-04-01T06:52:37;9.3;94.1
45311;SHT31;68264;51.540;5.854;2023-04-01T07:06:26;9.3;94.0
45311;SHT31;68264;51.540;5.854;2023-04-01T07:20:43;9.4;94.0
45311;SHT31;68264;51.540;5.854;2023-04-01T07:35:31;9.5;94.1
45311;SHT31;68264;51.540;5.854;2023-04-01T07:49:51;9.6;94.1
45311;SHT31;68264;51.540;5.854;2023-04-01T08:03:49;9.7;93.6
45311;SHT31;68264;51.540;5.854;2023-04-01T08:18:07;9.8;92.4
45311;SHT31;68264;51.540;5.854;2023-04-01T08:32:55;10.1;91.6
45311;SHT31;68264;51.540;5.854;2023-04-01T08:47:14;9.9;92.2
45311;SHT31;68264;51.540;5.854;2023-04-01T09:01:03;9.8;93.0
45311;SHT31;68264;51.540;5.854;2023-04-01T09:15:53;9.9;93.1
45311;SHT31;68264;51.540;5.854;2023-04-01T09:31:21;9.9;93.5
45311;SHT31;68264;51.540;5.854;2023-04-01T09:45:41;9.9;93.2
45311;SHT31;68264;51.540;5.854;2023-04-01T09:59:29;10.0;92.5
45311;SHT31;68264;51.540;5.854;2023-04-01T10:13:18;10.1;93.3
45311;SHT31;68264;51.540;5.854;2023-04-01T10:28:08;10.2;92.0
45311;SHT31;68264;51.540;5.854;2023-04-01T10:43:36;10.5;90.9
45311;SHT31;68264;51.540;5.854;2023-04-01T10:58:57;10.6;91.2
45311;SHT31;68264;51.540;5.854;2023-04-01T11:14:25;10.5;90.9
45311;SHT31;68264;51.540;5.854;2023-04-01T11:30:49;10.5;91.5
45311;SHT31;68264;51.540;5.854;2023-04-01T11:47:51;10.4;92.3
45311;SHT31;68264;51.540;5.854;2023-04-01T12:02:50;10.3;92.7
45311;SHT31;68264;51.540;5.854;2023-04-01T12:17:08;10.4;92.5
45311;SHT31;68264;51.540;5.854;2023-04-01T12:31:56;10.4;91.8
45311;SHT31;68264;51.540;5.854;2023-04-01T12:46:15;10.5;92.3
45311;SHT31;68264;51.540;5.854;2023-04-01T13:00:33;10.5;92.0
45311;SHT31;68264;51.540;5.854;2023-04-01T13:15:21;10.7;91.5
45311;SHT31;68264;51.540;5.854;2023-04-01T13:29:40;10.7;91.8
45311;SHT31;68264;51.540;5.854;2023-04-01T13:43:29;10.7;92.6
45311;SHT31;68264;51.540;5.854;2023-04-01T13:57:28;10.4;92.4
45311;SHT31;68264;51.540;5.854;2023-04-01T14:11:16;10.4;92.7
45311;SHT31;68264;51.540;5.854;2023-04-01T14:25:05;10.4;92.9
45311;SHT31;68264;51.540;5.854;2023-04-01T14:39:33;10.3;92.8
45311;SHT31;68264;51.540;5.854;2023-04-01T14:53:52;10.2;92.7
45311;SHT31;68264;51.540;5.854;2023-04-01T15:07:41;10.4;92.7
45311;SHT31;68264;51.540;5.854;2023-04-01T15:22:09;10.4;92.5
45311;SHT31;68264;51.540;5.854;2023-04-01T15:36:28;10.4;92.9
45311;SHT31;68264;51.540;5.854;2023-04-01T15:50:16;10.4;92.4
45311;SHT31;68264;51.540;5.854;2023-04-01T16:04:05;10.5;93.0
45311;SHT31;68264;51.540;5.854;2023-04-01T16:18:23;10.4;92.9
45311;SHT31;68264;51.540;5.854;2023-04-01T16:32:42;10.3;92.9
45311;SHT31;68264;51.540;5.854;2023-04-01T16:47:00;10.4;93.2
45311;SHT31;68264;51.540;5.854;2023-04-01T17:01:19;10.3;93.1
45311;SHT31;68264;51.540;5.854;2023-04-01T17:15:07;10.2;93.4
45311;SHT31;68264;51.540;5.854;2023-04-01T17:28:56;10.2;93.6
45311;SHT31;68264;51.540;5.854;2023-04-01T17:43:14;10.5;93.4
45311;SHT31;68264;51.540;5.854;2023-04-01T17:58:02;10.7;92.8
45311;SHT31;68264;51.540;5.854;2023-04-01T18:12:21;10.7;92.1
45311;SHT31;68264;51.540;5.854;2023-04-01T18:26:10;10.5;91.5
45311;SHT31;68264;51.540;5.854;2023-04-01T18:40:28;10.4;91.1
45311;SHT31;68264;51.540;5.854;2023-04-01T18:54:47;10.3;90.6
45311;SHT31;68264;51.540;5.854;2023-04-01T19:09:04;10.1;90.1
45311;SHT31;68264;51.540;5.854;2023-04-01T19:23:53;10.0;90.2
45311;SHT31;68264;51.540;5.854;2023-04-01T19:38:12;9.9;90.3
45311;SHT31;68264;51.540;5.854;2023-04-01T19:52:29;9.7;90.6
45311;SHT31;68264;51.540;5.854;2023-04-01T20:07:18;9.6;90.5
45311;SHT31;68264;51.540;5.854;2023-04-01T20:21:37;9.4;90.2
45311;SHT31;68264;51.540;5.854;2023-04-01T20:35:35;9.3;90.3
45311;SHT31;68264;51.540;5.854;2023-04-01T20:49:24;9.1;90.2
45311;SHT31;68264;51.540;5.854;2023-04-01T21:03:13;9.1;90.0
45311;SHT31;68264;51.540;5.854;2023-04-01T21:17:01;9.1;89.5
45311;SHT31;68264;51.540;5.854;2023-04-01T21:31:00;9.1;89.3
45311;SHT31;68264;51.540;5.854;2023-04-01T21:45:18;8.8;89.3
45311;SHT31;68264;51.540;5.854;2023-04-01T22:00:06;8.8;89.4
45311;SHT31;68264;51.540;5.854;2023-04-01T22:14:25;8.4;89.3
45311;SHT31;68264;51.540;5.854;2023-04-01T22:29:15;8.2;89.1
45311;SHT31;68264;51.540;5.854;2023-04-01T22:44:15;8.1;89.5
45311;SHT31;68264;51.540;5.854;2023-04-01T22:58:13;8.1;89.7
45311;SHT31;68264;51.540;5.854;2023-04-01T23:12:31;7.9;89.2
45311;SHT31;68264;51.540;5.854;2023-04-01T23:27:19;7.9;89.4
45311;SHT31;68264;51.540;5.854;2023-04-01T23:42:40;7.7;88.6
45311;SHT31;68264;51.540;5.854;2023-04-01T23:58:08;7.5;88.3
